Time;durP1;ratioP1;P1;durP2;ratioP2;P2;SDS_P1;SDS_P2;PMS_P1;PMS_P2;Temp;Humidity;BMP_temperature;BMP_pressure;BME280_temperature;BME280_humidity;BME280_pressure;Samples;Min_cycle;Max_cycle;Signal;HPM_P1;HPM_P2
2023/10/17 00:01:47;;;;;;;1.63;1.20;;;;;;;11.97;54.11;100804.19;5029970;28;20290;-76
2023/10/17 00:04:26;;;;;;;1.45;1.33;;;;;;;11.95;53.79;100804.16;5029924;28;20589;-77
2023/10/17 00:06:54;;;;;;;1.35;1.00;;;;;;;11.71;53.99;100764.66;5029652;28;20200;-77
2023/10/17 00:09:24;;;;;;;1.55;1.20;;;;;;;11.88;56.78;100799.66;5029933;28;20671;-77
2023/10/17 00:11:59;;;;;;;1.95;1.20;;;;;;;11.91;70.73;100799.75;5029538;28;20323;-77
2023/10/17 00:14:34;;;;;;;2.03;1.13;;;;;;;11.80;75.00;100796.06;5029591;28;20646;-78
2023/10/17 00:17:03;;;;;;;1.77;1.08;;;;;;;11.59;80.49;100798.16;5012543;28;20715;-77
2023/10/17 00:19:31;;;;;;;1.50;1.10;;;;;;;11.38;83.33;100796.81;5029514;28;20204;-78
2023/10/17 00:21:59;;;;;;;1.70;1.08;;;;;;;11.17;85.68;100795.41;4996897;28;20291;-77
2023/10/17 00:24:26;;;;;;;1.73;1.10;;;;;;;10.97;92.22;100805.34;5061687;28;20210;-78
2023/10/17 00:26:53;;;;;;;2.88;1.50;;;;;;;10.65;100.00;100788.06;5071368;28;20194;-78
2023/10/17 00:29:19;;;;;;;2.33;1.27;;;;;;;10.71;100.00;100796.00;5071628;28;20619;-77
2023/10/17 00:31:47;;;;;;;2.25;1.25;;;;;;;10.61;100.00;100788.81;5071229;28;20593;-77
2023/10/17 00:34:15;;;;;;;2.00;1.30;;;;;;;10.49;100.00;100785.94;5075330;28;20213;-78
2023/10/17 00:36:50;;;;;;;1.77;1.15;;;;;;;10.43;100.00;100791.81;5075245;28;20569;-78
2023/10/17 00:39:23;;;;;;;1.33;1.15;;;;;;;10.30;100.00;100798.41;5075391;28;20209;-74
2023/10/17 00:41:52;;;;;;;1.33;1.00;;;;;;;10.23;100.00;100795.59;5075199;28;20198;-76
2023/10/17 00:44:30;;;;;;;2.20;1.30;;;;;;;10.04;100.00;100790.69;5075308;28;20202;-78
2023/10/17 00:46:58;;;;;;;2.30;1.40;;;;;;;10.04;100.00;100786.38;5075310;28;20203;-77
2023/10/17 00:49:27;;;;;;;2.15;1.20;;;;;;;10.02;100.00;100790.66;5075304;28;20190;-77
2023/10/17 00:51:55;;;;;;;3.15;1.80;;;;;;;9.93;100.00;100787.78;5074995;28;20710;-76
2023/10/17 00:54:25;;;;;;;0.90;0.90;;;;;;;9.94;100.00;100795.63;5075172;28;20256;-77
2023/10/17 00:56:54;;;;;;;1.70;1.20;;;;;;;9.94;100.00;100785.25;5075206;28;20277;-78
2023/10/17 00:59:24;;;;;;;2.60;1.30;;;;;;;9.91;100.00;100784.28;5074883;28;20199;-75
2023/10/17 01:01:51;;;;;;;1.35;1.05;;;;;;;9.86;100.00;100780.66;5040322;28;20670;-76
2023/10/17 01:04:22;;;;;;;1.40;1.05;;;;;;;9.92;100.00;100780.84;5073763;28;20228;-77
2023/10/17 01:06:54;;;;;;;1.45;1.35;;;;;;;9.93;100.00;100778.31;5075191;28;20202;-78
2023/10/17 01:09:24;;;;;;;2.28;1.35;;;;;;;9.80;100.00;100760.66;5075241;28;20278;-78
2023/10/17 01:11:54;;;;;;;1.55;1.05;;;;;;;9.93;100.00;100777.44;5074886;28;20737;-77
2023/10/17 01:14:23;;;;;;;1.88;1.15;;;;;;;9.83;100.00;100771.09;5075082;28;20718;-78
2023/10/17 01:16:52;;;;;;;3.38;1.50;;;;;;;9.84;100.00;100785.81;5074495;28;20237;-79
2023/10/17 01:19:21;;;;;;;1.40;1.05;;;;;;;9.07;100.00;100679.94;5074526;28;20230;-76
2023/10/17 01:21:48;;;;;;;1.13;1.00;;;;;;;9.48;100.00;100784.72;5074627;28;20206;-77
2023/10/17 01:24:16;;;;;;;2.25;1.20;;;;;;;9.22;100.00;100758.03;5074701;28;20195;-76
2023/10/17 01:26:45;;;;;;;1.40;1.10;;;;;;;9.36;100.00;100772.28;5074233;28;20685;-77
2023/10/17 01:29:12;;;;;;;2.30;1.13;;;;;;;9.54;100.00;100781.44;5074719;28;20202;-78
2023/10/17 01:31:42;;;;;;;0.95;0.93;;;;;;;9.57;100.00;100782.41;5074205;28;20202;-77
2023/10/17 01:34:11;;;;;;;1.50;1.08;;;;;;;9.57;100.00;100782.41;5074376;28;20231;-77
2023/10/17 01:36:38;;;;;;;2.50;1.30;;;;;;;9.38;100.00;100754.22;5074241;28;20199;-77
2023/10/17 01:39:08;;;;;;;1.77;1.45;;;;;;;9.38;100.00;100768.00;5074218;28;20203;-76
2023/10/17 01:41:38;;;;;;;1.80;1.13;;;;;;;9.49;100.00;100791.63;5074327;28;20281;-79
2023/10/17 01:44:08;;;;;;;2.38;1.27;;;;;;;9.29;100.00;100756.50;5073751;28;20336;-80
2023/10/17 01:46:36;;;;;;;1.13;1.00;;;;;;;9.21;100.00;100760.56;5074209;28;20281;-76
2023/10/17 01:49:10;;;;;;;1.38;1.05;;;;;;;9.15;100.00;100771.63;5074147;28;20191;-76
2023/10/17 01:51:37;;;;;;;1.17;1.00;;;;;;;9.15;100.00;100776.78;5074059;28;20739;-79
2023/10/17 01:54:07;;;;;;;1.48;1.00;;;;;;;9.12;100.00;100779.28;5073971;28;20202;-79
2023/10/17 01:56:39;;;;;;;2.10;1.20;;;;;;;9.19;100.00;100778.66;5073842;28;20199;-77
2023/10/17 01:59:12;;;;;;;1.05;0.90;;;;;;;9.27;100.00;100782.38;5073675;28;20281;-79
2023/10/17 02:01:40;;;;;;;2.78;1.23;;;;;;;9.38;100.00;100783.53;5007661;28;20230;-78
2023/10/17 02:04:12;;;;;;;1.02;1.00;;;;;;;9.46;100.00;100784.66;5074061;28;20199;-77
2023/10/17 02:06:40;;;;;;;2.53;1.20;;;;;;;9.34;100.00;100767.91;5073906;28;20195;-78
2023/10/17 02:09:22;;;;;;;1.77;1.20;;;;;;;9.38;100.00;100767.16;5073987;28;20594;-78
2023/10/17 02:11:51;;;;;;;1.08;0.98;;;;;;;9.35;100.00;100764.47;5038619;28;20277;-78
2023/10/17 02:14:18;;;;;;;1.20;1.10;;;;;;;9.13;100.00;100762.06;5073757;28;20689;-77
2023/10/17 02:16:45;;;;;;;1.52;1.20;;;;;;;9.17;100.00;100780.28;5073613;28;20733;-75
2023/10/17 02:19:11;;;;;;;1.63;0.98;;;;;;;9.18;100.00;100782.06;5073672;28;20685;-76
2023/10/17 02:21:39;;;;;;;1.92;1.20;;;;;;;9.14;100.00;100769.84;5073532;28;20199;-79
2023/10/17 02:24:06;;;;;;;1.40;1.00;;;;;;;9.36;100.00;100780.03;5073591;28;20211;-78
2023/10/17 02:26:42;;;;;;;1.60;1.10;;;;;;;9.40;100.00;100794.84;5073409;28;20206;-77
2023/10/17 02:29:11;;;;;;;8.52;1.75;;;;;;;9.44;100.00;100796.69;5073166;28;20642;-77
2023/10/17 02:31:40;;;;;;;1.35;1.00;;;;;;;9.24;100.00;100760.69;5073348;28;21005;-76
2023/10/17 02:34:10;;;;;;;1.75;1.10;;;;;;;9.23;100.00;100756.34;5073403;28;20211;-77
2023/10/17 02:36:37;;;;;;;1.35;0.90;;;;;;;9.22;100.00;100770.09;5073110;28;20199;-77
2023/10/17 02:39:06;;;;;;;2.60;1.33;;;;;;;9.35;100.00;100790.34;5072817;28;20244;-77
2023/10/17 02:41:33;;;;;;;2.17;1.10;;;;;;;9.14;100.00;100785.38;5072940;28;20224;-77
2023/10/17 02:44:00;;;;;;;2.35;1.20;;;;;;;9.20;100.00;100783.00;5072807;28;20602;-77
2023/10/17 02:46:28;;;;;;;2.28;1.10;;;;;;;9.32;100.00;100791.13;5073112;28;20198;-77
2023/10/17 02:48:55;;;;;;;1.70;1.10;;;;;;;9.20;100.00;100764.88;5072789;28;20731;-77
2023/10/17 02:51:34;;;;;;;1.13;1.00;;;;;;;9.23;100.00;100784.78;5072586;28;20199;-77
2023/10/17 02:54:05;;;;;;;2.80;2.40;;;;;;;9.29;100.00;100788.44;5072785;28;20325;-76
2023/10/17 02:56:36;;;;;;;1.30;1.10;;;;;;;9.16;100.00;100775.09;5071478;28;20733;-76
2023/10/17 02:59:06;;;;;;;2.47;1.33;;;;;;;9.16;100.00;100778.56;5072453;28;20731;-76
2023/10/17 03:01:37;;;;;;;1.77;1.10;;;;;;;9.17;100.00;100774.22;5037250;28;20746;-76
2023/10/17 03:04:08;;;;;;;1.45;1.20;;;;;;;9.26;100.00;100775.41;5072282;28;20245;-77
2023/10/17 03:06:37;;;;;;;1.73;1.10;;;;;;;9.12;100.00;100750.81;5072336;28;20278;-76
2023/10/17 03:09:16;;;;;;;1.45;1.10;;;;;;;9.22;100.00;100768.38;5036928;28;20191;-77
2023/10/17 03:11:50;;;;;;;2.45;1.40;;;;;;;9.14;100.00;100764.66;5072352;28;20637;-77
2023/10/17 03:14:22;;;;;;;1.52;1.08;;;;;;;9.18;100.00;100765.66;5072301;28;20297;-77
2023/10/17 03:16:52;;;;;;;2.58;1.20;;;;;;;9.29;100.00;100769.44;5072154;28;20226;-77
2023/10/17 03:19:25;;;;;;;1.77;1.10;;;;;;;9.24;100.00;100753.78;5072085;28;20221;-76
2023/10/17 03:21:53;;;;;;;1.75;1.20;;;;;;;9.36;100.00;100776.56;5072046;28;20277;-77
2023/10/17 03:24:24;;;;;;;1.23;1.10;;;;;;;9.37;100.00;100775.75;5072459;28;20565;-78
2023/10/17 03:26:54;;;;;;;2.35;1.23;;;;;;;9.36;100.00;100772.28;5072079;28;20690;-77
2023/10/17 03:29:23;;;;;;;3.17;1.27;;;;;;;9.33;100.00;100767.00;5072142;28;20590;-76
2023/10/17 03:31:58;;;;;;;2.15;1.10;;;;;;;9.26;100.00;100765.06;5071918;28;20211;-76
2023/10/17 03:34:34;;;;;;;2.13;1.10;;;;;;;9.26;100.00;100766.78;5072123;28;20205;-76
2023/10/17 03:37:26;;;;;;;1.90;1.08;;;;;;;9.17;100.00;100751.81;5072077;28;20209;-76
2023/10/17 03:39:52;;;;;;;3.42;1.27;;;;;;;8.64;100.00;100675.16;5071946;28;20667;-75
2023/10/17 03:42:31;;;;;;;2.20;1.65;;;;;;;8.91;100.00;100720.00;5053545;28;20281;-78
2023/10/17 03:44:58;;;;;;;1.95;1.30;;;;;;;9.11;100.00;100762.00;5072095;28;20626;-76
2023/10/17 03:47:27;;;;;;;2.33;1.25;;;;;;;9.13;100.00;100762.06;5071881;28;20199;-76
2023/10/17 03:49:56;;;;;;;2.38;1.30;;;;;;;9.07;100.00;100761.84;5071827;28;20199;-76
2023/10/17 03:52:23;;;;;;;1.77;1.10;;;;;;;8.75;100.00;100741.00;5071649;28;20736;-76
2023/10/17 03:54:50;;;;;;;1.92;1.10;;;;;;;8.89;100.00;100764.72;5071867;28;20201;-76
2023/10/17 03:57:17;;;;;;;3.35;1.33;;;;;;;8.86;100.00;100757.75;5075916;28;20194;-76
2023/10/17 03:59:51;;;;;;;1.85;1.10;;;;;;;8.85;100.00;100757.69;5079754;28;20195;-76
2023/10/17 04:02:19;;;;;;;2.28;1.10;;;;;;;8.85;100.00;100755.09;5080570;28;20199;-77
2023/10/17 04:04:53;;;;;;;1.00;0.90;;;;;;;8.97;100.00;100763.25;5045115;28;20234;-74
2023/10/17 04:07:22;;;;;;;1.48;1.02;;;;;;;8.90;100.00;100758.72;5074178;28;20677;-76
2023/10/17 04:09:54;;;;;;;1.67;1.20;;;;;;;8.86;100.00;100762.03;5037234;28;20216;-76
2023/10/17 04:12:23;;;;;;;1.20;1.02;;;;;;;8.83;100.00;100756.75;5072055;28;20213;-76
2023/10/17 04:14:54;;;;;;;1.55;1.15;;;;;;;8.66;100.00;100765.69;5072203;28;20202;-73
2023/10/17 04:17:24;;;;;;;3.28;1.30;;;;;;;8.79;100.00;100760.06;5072915;28;20230;-76
2023/10/17 04:19:58;;;;;;;1.83;1.10;;;;;;;8.92;100.00;100762.22;5072167;28;20203;-76
2023/10/17 04:22:29;;;;;;;1.75;1.13;;;;;;;8.88;100.00;100757.81;5072252;28;20666;-76
2023/10/17 04:25:00;;;;;;;1.48;1.10;;;;;;;8.37;100.00;100667.38;5072158;28;20260;-70
2023/10/17 04:27:31;;;;;;;2.58;1.10;;;;;;;8.95;100.00;100763.19;5005201;28;20668;-75
2023/10/17 04:29:58;;;;;;;1.73;1.00;;;;;;;8.89;100.00;100757.84;5071475;28;20625;-76
2023/10/17 04:32:28;;;;;;;0.95;0.90;;;;;;;8.76;100.00;100732.44;5036070;28;20693;-76
2023/10/17 04:34:57;;;;;;;2.10;1.00;;;;;;;8.96;100.00;100764.09;5036027;28;20252;-76
2023/10/17 04:37:31;;;;;;;1.88;1.10;;;;;;;8.91;100.00;100752.72;5052759;28;20198;-78
2023/10/17 04:40:27;;;;;;;1.15;0.93;;;;;;;8.93;100.00;100758.81;5071119;28;20205;-76
2023/10/17 04:42:56;;;;;;;3.40;1.27;;;;;;;8.84;100.00;100761.13;5071002;28;20256;-76
2023/10/17 04:45:23;;;;;;;1.00;0.90;;;;;;;8.79;100.00;100766.13;5071213;28;20202;-77
2023/10/17 04:48:10;;;;;;;1.63;1.10;;;;;;;8.76;100.00;100739.31;5071508;28;20207;-77
2023/10/17 04:50:44;;;;;;;3.42;1.30;;;;;;;8.89;100.00;100756.97;5071419;28;20210;-76
2023/10/17 04:53:19;;;;;;;3.22;1.50;;;;;;;8.69;100.00;100732.16;5070972;28;20229;-76
2023/10/17 04:56:03;;;;;;;2.13;1.10;;;;;;;8.90;100.00;100766.47;5070952;28;20248;-76
2023/10/17 04:58:39;;;;;;;0.80;0.80;;;;;;;8.89;100.00;100757.84;5070895;28;20738;-78
2023/10/17 05:01:34;;;;;;;3.40;1.40;;;;;;;9.04;100.00;100762.63;5070920;28;20209;-76
2023/10/17 05:04:02;;;;;;;3.00;1.40;;;;;;;8.99;100.00;100747.81;5035683;28;20205;-76
2023/10/17 05:07:07;;;;;;;2.17;1.13;;;;;;;9.19;100.00;100768.28;5071299;28;20597;-76
2023/10/17 06:18:42;;;;;;;2.85;1.20;;;;;;;11.34;100.00;100800.16;4963384;28;20270;-74
2023/10/17 06:21:17;;;;;;;5.10;1.48;;;;;;;11.53;100.00;100796.28;4982018;28;20238;-78
2023/10/17 06:26:47;;;;;;;2.80;1.10;;;;;;;11.56;97.98;100822.31;5031070;28;20203;-76
2023/10/17 06:32:15;;;;;;;2.42;1.10;;;;;;;11.55;99.25;100824.91;5030667;28;20199;-75
2023/10/17 06:34:43;;;;;;;2.85;1.30;;;;;;;11.99;100.00;100818.09;5031159;28;20226;-77
2023/10/17 06:37:11;;;;;;;4.18;1.45;;;;;;;12.02;95.05;100821.63;5024200;28;20205;-76
2023/10/17 06:39:37;;;;;;;3.17;1.30;;;;;;;12.25;93.76;100812.59;5024378;28;20212;-75
2023/10/17 06:42:27;;;;;;;3.20;1.23;;;;;;;12.05;94.21;100820.84;5031119;28;20196;-77
2023/10/17 06:44:54;;;;;;;1.73;1.23;;;;;;;11.84;98.22;100803.94;5031263;28;20650;-78
2023/10/17 06:47:30;;;;;;;4.53;1.52;;;;;;;11.90;98.57;100805.78;5011861;28;20303;-78
2023/10/17 06:51:02;;;;;;;1.45;1.10;;;;;;;11.95;98.94;100811.09;5025510;28;20298;-79
2023/10/17 06:53:04;;;;;;;2.10;1.67;;;;;;;12.03;97.61;100814.72;5022618;28;20836;-77
2023/10/17 06:55:38;;;;;;;1.20;0.90;;;;;;;12.10;97.67;100795.78;5034851;28;20199;-76
2023/10/17 06:58:09;;;;;;;1.30;0.90;;;;;;;12.33;93.28;100811.03;5072650;28;20210;-77
2023/10/17 07:00:51;;;;;;;1.85;1.00;;;;;;;12.60;93.03;100814.97;5073151;28;20252;-77
2023/10/17 07:03:25;;;;;;;4.95;1.48;;;;;;;12.40;92.51;100802.50;5027142;28;20261;-78
2023/10/17 07:05:54;;;;;;;2.00;1.10;;;;;;;12.61;91.08;100812.41;5071839;28;20230;-78
2023/10/17 07:08:27;;;;;;;2.28;1.20;;;;;;;12.70;88.85;100783.09;5062057;28;20315;-76
2023/10/17 07:11:02;;;;;;;2.10;1.10;;;;;;;13.12;87.28;100811.59;5070256;28;20589;-77
2023/10/17 07:13:54;;;;;;;2.22;1.23;;;;;;;13.26;85.97;100808.38;5072619;28;20226;-76
2023/10/17 07:16:33;;;;;;;1.45;0.98;;;;;;;13.02;81.27;100813.13;5072892;28;20239;-77
2023/10/17 07:19:46;;;;;;;1.73;1.00;;;;;;;12.84;81.95;100779.84;5058192;28;20675;-77
2023/10/17 07:22:05;;;;;;;1.58;1.00;;;;;;;12.81;83.19;100759.00;5052844;28;20210;-78
2023/10/17 07:24:33;;;;;;;3.83;1.40;;;;;;;13.26;84.60;100810.97;5057327;28;20667;-78
2023/10/17 07:27:01;;;;;;;1.98;1.08;;;;;;;13.44;82.29;100788.66;5072913;28;20255;-78
2023/10/17 07:29:33;;;;;;;1.35;1.00;;;;;;;13.74;80.52;100815.13;5072475;28;20230;-78
2023/10/17 07:32:09;;;;;;;2.28;1.10;;;;;;;13.89;78.74;100794.50;5072347;28;20207;-77
2023/10/17 07:34:38;;;;;;;2.65;1.33;;;;;;;13.79;79.45;100730.06;5058054;28;20227;-78
2023/10/17 07:37:22;;;;;;;3.85;1.45;;;;;;;14.23;76.17;100801.88;5062961;28;20231;-77
2023/10/17 07:40:03;;;;;;;1.73;1.00;;;;;;;14.39;74.29;100797.75;5054319;28;20203;-78
2023/10/17 07:42:31;;;;;;;2.30;1.20;;;;;;;14.07;76.18;100799.94;5071752;28;20289;-76
2023/10/17 07:45:01;;;;;;;1.55;1.00;;;;;;;13.88;77.56;100769.28;5058195;28;20288;-76
2023/10/17 07:47:34;;;;;;;2.88;1.50;;;;;;;14.06;78.73;100802.53;5072173;28;20206;-78
2023/10/17 07:50:01;;;;;;;1.42;1.08;;;;;;;14.19;77.94;100797.50;5071792;28;20249;-76
2023/10/17 07:52:31;;;;;;;1.88;1.00;;;;;;;14.27;78.27;100803.66;5023081;28;20200;-78
2023/10/17 07:54:59;;;;;;;1.08;0.90;;;;;;;14.51;76.85;100797.88;5072626;28;20246;-79
2023/10/17 07:57:26;;;;;;;2.45;1.23;;;;;;;14.58;74.43;100798.81;5072584;28;20722;-79
2023/10/17 07:59:56;;;;;;;3.20;1.30;;;;;;;14.81;73.92;100800.78;5072152;28;20210;-78
2023/10/17 08:02:30;;;;;;;1.08;0.98;;;;;;;14.65;72.83;100798.03;5038383;28;20202;-79
2023/10/17 08:05:16;;;;;;;1.52;1.00;;;;;;;14.52;73.08;100798.78;5072381;28;20202;-79
2023/10/17 08:07:43;;;;;;;2.25;1.38;;;;;;;14.68;72.22;100791.09;5072379;28;20209;-79
2023/10/17 08:10:11;;;;;;;2.60;1.13;;;;;;;14.49;72.40;100794.38;5072191;28;20667;-79
2023/10/17 08:12:38;;;;;;;1.17;0.90;;;;;;;14.62;71.50;100782.34;5072049;28;20252;-79
2023/10/17 08:15:19;;;;;;;2.63;1.10;;;;;;;14.75;71.10;100787.69;5072317;28;20230;-78
2023/10/17 08:17:48;;;;;;;0.85;0.80;;;;;;;15.13;72.51;100790.63;5071864;28;20199;-78
2023/10/17 08:23:06;;;;;;;1.08;0.80;;;;;;;15.46;95.71;100783.88;5039853;28;20209;-74
2023/10/17 08:25:39;;;;;;;2.55;1.08;;;;;;;15.56;79.06;100776.13;5071209;28;20289;-74
2023/10/17 08:28:17;;;;;;;1.65;1.00;;;;;;;15.99;68.40;100771.13;5038621;28;20680;-79
2023/10/17 08:30:45;;;;;;;1.23;0.90;;;;;;;15.99;63.65;100772.00;5071807;28;20206;-78
2023/10/17 08:33:11;;;;;;;1.65;1.10;;;;;;;16.10;62.91;100738.91;5054059;28;20205;-78
2023/10/17 08:35:39;;;;;;;1.35;1.00;;;;;;;16.50;75.55;100771.28;5072022;28;20285;-78
2023/10/17 08:38:06;;;;;;;1.17;0.80;;;;;;;16.71;61.38;100770.47;5071556;28;20199;-75
2023/10/17 08:40:40;;;;;;;1.35;1.13;;;;;;;16.66;58.60;100775.69;5064776;28;20206;-76
2023/10/17 08:43:11;;;;;;;3.83;1.35;;;;;;;16.63;58.03;100769.59;5067908;28;20203;-76
2023/10/17 08:45:39;;;;;;;0.80;0.80;;;;;;;16.71;58.39;100770.47;5071225;28;20199;-77
2023/10/17 08:48:09;;;;;;;1.98;1.08;;;;;;;16.26;59.27;100776.47;5065770;28;20295;-76
2023/10/17 08:50:39;;;;;;;2.17;1.20;;;;;;;16.05;59.23;100772.00;5062241;28;20249;-75
2023/10/17 08:53:12;;;;;;;3.63;1.33;;;;;;;15.93;60.60;100777.22;5070329;28;20198;-77
2023/10/17 08:55:41;;;;;;;1.13;0.95;;;;;;;15.66;59.67;100771.84;5062496;28;20234;-78
2023/10/17 08:58:08;;;;;;;0.93;0.88;;;;;;;15.62;60.08;100772.69;5061013;28;20206;-77
2023/10/17 09:00:55;;;;;;;1.35;0.95;;;;;;;15.67;60.11;100773.59;5056838;28;20307;-76
2023/10/17 09:03:26;;;;;;;3.35;1.23;;;;;;;15.92;61.16;100777.19;5060752;28;20202;-76
2023/10/17 09:06:06;;;;;;;1.00;0.88;;;;;;;16.08;60.27;100772.06;5041325;28;20206;-75
2023/10/17 09:11:29;;;;;;;2.00;1.10;;;;;;;16.04;58.08;100749.34;5012742;28;20712;-76
2023/10/17 09:16:47;;;;;;;2.50;1.17;;;;;;;16.30;57.85;100752.91;4936203;29;20241;-77
2023/10/17 09:19:14;;;;;;;3.67;1.35;;;;;;;16.43;57.00;100745.09;4954562;29;20206;-77
2023/10/17 09:21:46;;;;;;;1.67;0.98;;;;;;;16.68;56.67;100741.66;4954156;29;20218;-76
2023/10/17 09:24:35;;;;;;;1.92;1.10;;;;;;;16.47;55.32;100744.22;4954330;29;20243;-76
2023/10/17 09:27:10;;;;;;;2.20;1.02;;;;;;;16.18;54.76;100716.25;4954370;29;20290;-77
2023/10/17 09:29:49;;;;;;;1.92;1.00;;;;;;;16.07;52.66;100714.47;4899577;29;20296;-75
2023/10/17 09:32:34;;;;;;;1.02;0.93;;;;;;;16.61;53.21;100739.91;4937537;29;20346;-77
2023/10/17 09:35:10;;;;;;;3.35;1.23;;;;;;;16.89;53.01;100744.28;4938465;29;20269;-76
2023/10/17 09:37:41;;;;;;;16.25;1.58;;;;;;;16.95;51.51;100739.03;4935251;29;20207;-78
2023/10/17 09:40:13;;;;;;;3.42;1.30;;;;;;;17.03;50.09;100733.81;4952046;29;20269;-79
2023/10/17 09:42:44;;;;;;;2.15;1.10;;;;;;;16.96;48.17;100730.31;4954345;29;20203;-79
2023/10/17 09:45:11;;;;;;;2.55;1.10;;;;;;;16.93;46.90;100726.81;4954456;29;20215;-80
2023/10/17 09:47:41;;;;;;;2.10;1.08;;;;;;;16.66;46.13;100710.22;4961583;28;20256;-80
2023/10/17 09:50:12;;;;;;;2.95;1.10;;;;;;;17.10;46.48;100722.44;4964972;28;20197;-78
2023/10/17 09:52:40;;;;;;;1.60;1.00;;;;;;;17.64;46.01;100726.72;5013071;28;20232;-79
2023/10/17 09:55:13;;;;;;;2.20;1.02;;;;;;;18.08;45.73;100724.78;5071908;28;20221;-79
2023/10/17 09:57:50;;;;;;;1.70;1.00;;;;;;;18.00;44.51;100713.44;5036312;28;20224;-77
2023/10/17 10:00:28;;;;;;;3.38;1.17;;;;;;;18.14;44.39;100714.25;5069773;28;20256;-77
2023/10/17 10:02:57;;;;;;;2.95;1.13;;;;;;;18.19;44.35;100716.84;5074538;28;20234;-78
2023/10/17 10:05:28;;;;;;;1.80;0.90;;;;;;;18.28;44.19;100711.53;5074113;28;20249;-79
2023/10/17 10:07:55;;;;;;;7.93;3.10;;;;;;;18.23;43.31;100706.31;5074369;28;20272;-79
2023/10/17 10:10:52;;;;;;;3.63;1.55;;;;;;;18.20;44.28;100701.09;5074928;28;20605;-78
2023/10/17 10:13:20;;;;;;;2.05;0.98;;;;;;;18.52;43.83;100694.75;5012405;28;20645;-78
2023/10/17 10:15:51;;;;;;;2.03;1.17;;;;;;;18.87;43.34;100692.72;5011774;28;20790;-78
2023/10/17 10:18:18;;;;;;;1.85;0.95;;;;;;;18.97;42.08;100654.09;5013077;28;20204;-79
2023/10/17 10:20:57;;;;;;;3.35;1.45;;;;;;;18.85;40.37;100684.00;5013731;28;20196;-77
2023/10/17 10:23:34;;;;;;;2.20;1.00;;;;;;;18.65;40.96;100659.66;5012977;28;20254;-79
2023/10/17 10:26:19;;;;;;;2.22;1.00;;;;;;;18.70;40.78;100665.72;5013148;28;20240;-79
2023/10/17 10:28:47;;;;;;;0.95;0.82;;;;;;;18.87;40.90;100679.56;5013263;28;20291;-79
2023/10/17 10:31:38;;;;;;;3.15;1.08;;;;;;;18.83;39.97;100651.63;5013553;28;20287;-79
2023/10/17 10:34:06;;;;;;;3.22;1.08;;;;;;;18.74;41.24;100655.19;5012761;28;20208;-79
2023/10/17 10:36:34;;;;;;;0.95;0.90;;;;;;;18.54;39.76;100651.00;5011943;28;20299;-78
2023/10/17 10:39:12;;;;;;;1.73;0.95;;;;;;;18.53;39.71;100651.88;5011778;28;20241;-79
2023/10/17 10:41:56;;;;;;;3.53;1.10;;;;;;;18.55;39.54;100652.75;4996710;28;20542;-80
2023/10/17 10:44:23;;;;;;;0.95;0.80;;;;;;;18.33;39.48;100631.84;5012961;28;20200;-79
2023/10/17 10:46:52;;;;;;;1.58;1.00;;;;;;;18.31;38.80;100646.75;5012746;28;20224;-79
2023/10/17 10:49:26;;;;;;;1.42;0.82;;;;;;;18.95;38.96;100648.84;5030957;28;20611;-79
2023/10/17 10:51:52;;;;;;;2.20;0.88;;;;;;;18.65;37.11;100630.75;5074998;28;20231;-78
2023/10/17 10:54:19;;;;;;;1.38;0.88;;;;;;;18.54;36.88;100638.75;5074276;28;20591;-79
2023/10/17 10:56:52;;;;;;;1.95;0.90;;;;;;;18.53;36.86;100596.72;5074196;28;20211;-79
2023/10/17 10:59:22;;;;;;;4.75;1.15;;;;;;;18.61;37.38;100631.66;5074679;28;20210;-79
2023/10/17 11:01:49;;;;;;;5.90;1.33;;;;;;;18.61;37.39;100632.53;5074927;28;20210;-79
2023/10/17 11:04:16;;;;;;;7.72;1.65;;;;;;;18.53;36.00;100629.09;5074270;28;20237;-78
2023/10/17 11:06:43;;;;;;;3.88;1.13;;;;;;;18.77;36.09;100626.25;5075588;28;20206;-80
2023/10/17 11:09:16;;;;;;;2.97;1.02;;;;;;;18.63;36.33;100614.13;5076339;28;20206;-79
2023/10/17 11:11:46;;;;;;;4.50;1.10;;;;;;;18.77;36.74;100614.88;5075728;28;20229;-79
2023/10/17 11:14:17;;;;;;;4.35;1.40;;;;;;;18.94;35.95;100576.13;5075645;28;20593;-78
2023/10/17 11:16:45;;;;;;;3.47;1.05;;;;;;;19.20;35.14;100613.53;5074973;28;20263;-78
2023/10/17 11:19:22;;;;;;;4.35;1.17;;;;;;;19.31;35.47;100616.91;5041301;28;20194;-78
2023/10/17 11:21:55;;;;;;;3.47;1.00;;;;;;;19.22;35.00;100611.75;5076223;28;20202;-79
2023/10/17 11:24:26;;;;;;;2.72;1.00;;;;;;;18.94;33.53;100617.34;5075969;28;20264;-79
2023/10/17 11:26:54;;;;;;;0.77;0.77;;;;;;;18.96;34.40;100613.81;5075556;28;20194;-79
2023/10/17 11:29:25;;;;;;;3.70;1.20;;;;;;;18.77;34.50;100580.72;5075164;28;20213;-79
2023/10/17 11:31:53;;;;;;;2.95;1.10;;;;;;;18.52;33.75;100594.97;5074612;28;20207;-79
2023/10/17 11:34:32;;;;;;;2.60;0.95;;;;;;;18.37;35.01;100558.34;5038573;28;20198;-80
2023/10/17 11:37:04;;;;;;;4.18;1.13;;;;;;;18.39;34.52;100578.44;5072761;28;20195;-79
2023/10/17 11:39:39;;;;;;;0.77;0.73;;;;;;;18.53;33.34;100580.97;5072450;28;20701;-79
2023/10/17 11:42:06;;;;;;;2.72;0.90;;;;;;;18.30;33.67;100542.59;5072313;28;20289;-79
2023/10/17 11:44:42;;;;;;;3.00;1.00;;;;;;;18.83;33.06;100579.78;5072381;28;20233;-79
2023/10/17 11:47:20;;;;;;;2.88;1.00;;;;;;;18.67;32.76;100532.66;5072568;28;20195;-78
2023/10/17 11:49:49;;;;;;;3.25;1.05;;;;;;;19.00;33.10;100569.97;5072469;28;20233;-78
2023/10/17 11:52:17;;;;;;;2.90;0.98;;;;;;;18.88;33.54;100568.34;5038171;28;20662;-80
2023/10/17 11:54:58;;;;;;;2.25;0.93;;;;;;;18.63;34.46;100545.84;5073893;28;20234;-79
2023/10/17 11:57:25;;;;;;;4.32;1.50;;;;;;;18.83;33.63;100554.38;5073128;28;20300;-80
2023/10/17 12:00:06;;;;;;;1.38;0.80;;;;;;;18.80;33.62;100551.78;5073158;28;20214;-79
2023/10/17 12:02:33;;;;;;;1.75;0.90;;;;;;;18.92;33.90;100562.16;5073454;28;20194;-80
2023/10/17 12:05:01;;;;;;;4.32;1.63;;;;;;;18.59;34.59;100528.34;5073238;28;20203;-79
2023/10/17 12:07:29;;;;;;;3.72;1.63;;;;;;;18.61;34.47;100561.63;5073862;28;20262;-80
2023/10/17 12:10:03;;;;;;;4.40;1.20;;;;;;;18.54;33.33;100544.19;5072901;28;20600;-81
2023/10/17 12:12:30;;;;;;;4.28;1.23;;;;;;;18.79;32.90;100558.81;5072983;28;20193;-80
2023/10/17 12:14:57;;;;;;;3.75;1.15;;;;;;;18.97;32.38;100560.34;5072628;28;20260;-79
2023/10/17 12:17:25;;;;;;;3.35;1.02;;;;;;;19.20;32.64;100560.94;5073137;28;20237;-79
2023/10/17 12:19:52;;;;;;;10.52;1.98;;;;;;;18.91;33.40;100562.16;5073199;28;20207;-80
2023/10/17 12:22:19;;;;;;;3.70;1.10;;;;;;;18.97;32.88;100555.09;5038028;28;20285;-79
2023/10/17 12:24:46;;;;;;;2.28;0.95;;;;;;;18.68;32.69;100549.28;5072323;28;20210;-80
2023/10/17 12:27:13;;;;;;;3.75;1.15;;;;;;;18.74;32.44;100549.22;5071966;28;20213;-79
2023/10/17 12:29:40;;;;;;;3.15;1.05;;;;;;;18.77;32.76;100549.19;5072193;28;20694;-79
2023/10/17 12:32:10;;;;;;;4.30;1.38;;;;;;;19.25;39.42;100545.13;5071749;28;20662;-79
2023/10/17 12:34:39;;;;;;;2.15;0.90;;;;;;;19.57;32.85;100544.72;5071935;28;20199;-78
2023/10/17 12:37:10;;;;;;;3.78;1.17;;;;;;;19.50;32.28;100545.69;5072126;28;20214;-79
2023/10/17 12:39:36;;;;;;;4.85;1.27;;;;;;;19.38;32.38;100543.19;5071732;28;20203;-79
2023/10/17 12:42:05;;;;;;;2.30;0.95;;;;;;;19.46;32.38;100543.97;5071758;28;20221;-78
2023/10/17 12:44:32;;;;;;;2.15;1.02;;;;;;;19.35;32.62;100530.06;5071812;28;20630;-80
2023/10/17 12:46:59;;;;;;;2.80;1.05;;;;;;;19.24;33.10;100510.06;5072201;28;20623;-79
2023/10/17 12:49:26;;;;;;;4.15;1.17;;;;;;;19.23;32.57;100524.09;5071772;28;20272;-79
2023/10/17 12:51:54;;;;;;;0.70;0.70;;;;;;;19.17;32.65;100518.91;5036876;28;20217;-79
2023/10/17 12:54:21;;;;;;;1.23;0.80;;;;;;;19.08;32.55;100513.78;5072477;28;20195;-79
2023/10/17 12:56:48;;;;;;;2.55;1.55;;;;;;;19.18;32.58;100507.53;5072494;28;20225;-79
2023/10/17 12:59:15;;;;;;;1.95;0.98;;;;;;;19.20;32.27;100503.09;5072211;28;20260;-80
2023/10/17 13:01:43;;;;;;;0.90;0.70;;;;;;;19.10;31.69;100496.22;5068550;28;20274;-80
2023/10/17 13:04:11;;;;;;;1.27;0.90;;;;;;;19.18;32.28;100494.38;5036358;28;20199;-78
2023/10/17 13:06:38;;;;;;;0.82;0.80;;;;;;;18.83;32.44;100469.44;5071299;28;20202;-77
2023/10/17 13:09:06;;;;;;;2.13;1.10;;;;;;;18.77;32.60;100473.88;5071202;28;20206;-79